createdAt,value
2018-01-03T00:00:37.353Z,812.40
2018-01-03T00:01:37.353Z,812.48
2018-01-03T00:02:37.366Z,812.48
2018-01-03T00:03:37.366Z,812.48
2018-01-03T00:04:37.372Z,812.52
2018-01-03T00:05:37.383Z,812.61
2018-01-03T00:06:37.389Z,812.60
2018-01-03T00:07:37.397Z,812.52
2018-01-03T00:08:37.404Z,812.56
2018-01-03T00:09:37.410Z,812.54
2018-01-03T00:10:37.411Z,812.57
2018-01-03T00:11:37.417Z,812.57
2018-01-03T00:12:37.425Z,812.62
2018-01-03T00:13:37.440Z,812.63
2018-01-03T00:14:37.443Z,812.51
2018-01-03T00:15:37.448Z,812.55
2018-01-03T00:16:37.464Z,812.64
2018-01-03T00:17:37.456Z,812.67
2018-01-03T00:18:37.474Z,812.72
2018-01-03T00:19:37.471Z,812.71
2018-01-03T00:20:37.481Z,812.71
2018-01-03T00:21:37.484Z,812.75
2018-01-03T00:22:37.494Z,812.61
2018-01-03T00:23:37.501Z,812.69
2018-01-03T00:24:37.503Z,812.71
2018-01-03T00:25:37.514Z,812.74
2018-01-03T00:26:37.524Z,812.76
2018-01-03T00:27:37.522Z,812.67
2018-01-03T00:28:37.529Z,812.57
2018-01-03T00:29:37.540Z,812.53
2018-01-03T00:30:37.548Z,812.45
2018-01-03T00:31:37.548Z,812.50
2018-01-03T00:32:37.559Z,812.47
2018-01-03T00:33:37.562Z,812.34
2018-01-03T00:34:37.570Z,812.26
2018-01-03T00:35:37.574Z,812.34
2018-01-03T00:36:37.588Z,812.21
2018-01-03T00:37:37.595Z,812.33
2018-01-03T00:38:37.599Z,812.28
2018-01-03T00:39:37.608Z,812.36
2018-01-03T00:40:37.608Z,812.36
2018-01-03T00:41:37.620Z,812.33
2018-01-03T00:42:37.626Z,812.28
2018-01-03T00:43:37.626Z,812.27
2018-01-03T00:44:37.639Z,812.14
2018-01-03T00:45:37.647Z,812.18
2018-01-03T00:46:37.652Z,812.01
2018-01-03T00:47:37.658Z,811.98
2018-01-03T00:48:37.665Z,812.03
2018-01-03T00:49:37.667Z,812.11
2018-01-03T00:50:37.677Z,812.12
2018-01-03T00:51:37.686Z,812.17
2018-01-03T00:52:37.687Z,812.09
2018-01-03T00:53:37.708Z,812.10
2018-01-03T00:54:37.705Z,812.06
2018-01-03T00:55:37.714Z,812.11
2018-01-03T00:56:37.714Z,812.03
2018-01-03T00:57:37.728Z,812.00
2018-01-03T00:58:37.728Z,812.00
2018-01-03T00:59:37.735Z,812.01
2018-01-03T01:00:37.742Z,812.01
2018-01-03T01:01:37.754Z,811.98
2018-01-03T01:02:37.755Z,811.94
2018-01-03T01:03:37.763Z,811.90
2018-01-03T01:04:37.774Z,811.90
2018-01-03T01:05:37.778Z,811.88
2018-01-03T01:06:37.783Z,812.01
2018-01-03T01:07:37.790Z,811.77
2018-01-03T01:08:37.803Z,811.73
2018-01-03T01:09:37.805Z,811.79
2018-01-03T01:10:37.816Z,811.84
2018-01-03T01:11:37.825Z,811.91
2018-01-03T01:12:37.826Z,811.96
2018-01-03T01:13:37.833Z,811.98
2018-01-03T01:14:37.844Z,811.94
2018-01-03T01:15:37.845Z,812.06
2018-01-03T01:16:37.853Z,811.93
2018-01-03T01:17:37.862Z,811.93
2018-01-03T01:18:37.866Z,811.96
2018-01-03T01:19:37.880Z,812.04
2018-01-03T01:20:37.885Z,812.06
2018-01-03T01:21:37.890Z,811.98
2018-01-03T01:22:37.907Z,812.02
2018-01-03T01:23:37.909Z,812.14
2018-01-03T01:24:37.918Z,812.11
2018-01-03T01:25:37.924Z,812.11
2018-01-03T01:26:37.931Z,812.07
2018-01-03T01:27:37.932Z,812.04
2018-01-03T01:28:37.941Z,812.10
2018-01-03T01:29:37.953Z,812.20
2018-01-03T01:30:37.963Z,812.23
2018-01-03T01:31:37.962Z,812.16
2018-01-03T01:32:37.975Z,812.18
2018-01-03T01:33:37.983Z,812.23
2018-01-03T01:34:37.983Z,812.26
2018-01-03T01:35:37.991Z,812.29
2018-01-03T01:36:38.002Z,812.32
2018-01-03T01:37:38.005Z,812.25
2018-01-03T01:38:38.018Z,812.26
2018-01-03T01:39:38.022Z,812.20
2018-01-03T01:40:38.033Z,812.22
2018-01-03T01:41:38.040Z,812.22
2018-01-03T01:42:38.047Z,812.25
2018-01-03T01:43:38.054Z,812.21
2018-01-03T01:44:38.063Z,812.17
2018-01-03T01:45:38.064Z,812.16
2018-01-03T01:46:38.071Z,812.13
2018-01-03T01:47:38.076Z,812.20
2018-01-03T01:48:38.090Z,812.13
2018-01-03T01:49:38.098Z,812.16
2018-01-03T01:50:38.098Z,812.10
2018-01-03T01:51:38.111Z,812.12
2018-01-03T01:52:38.120Z,812.14
2018-01-03T01:53:38.130Z,812.20
2018-01-03T01:54:38.128Z,812.22
2018-01-03T01:55:38.140Z,812.22
2018-01-03T01:56:38.160Z,812.16
2018-01-03T01:57:38.150Z,812.11
2018-01-03T01:58:38.159Z,812.15
2018-01-03T01:59:38.170Z,812.21
2018-01-03T02:00:38.180Z,812.17
2018-01-03T02:01:38.182Z,812.19
2018-01-03T02:02:38.188Z,812.25
2018-01-03T02:03:38.195Z,812.17
2018-01-03T02:04:38.203Z,812.34
2018-01-03T02:05:38.211Z,812.34
2018-01-03T02:06:38.216Z,812.41
2018-01-03T02:07:38.225Z,812.41
2018-01-03T02:08:38.237Z,812.42
2018-01-03T02:09:38.246Z,812.39
2018-01-03T02:10:38.250Z,812.38
2018-01-03T02:11:38.259Z,812.38
2018-01-03T02:12:38.266Z,812.39
2018-01-03T02:13:38.274Z,812.38
2018-01-03T02:14:38.283Z,812.38
2018-01-03T02:15:38.282Z,812.42
2018-01-03T02:16:38.290Z,812.39
2018-01-03T02:17:38.302Z,812.37
2018-01-03T02:18:38.311Z,812.23
2018-01-03T02:19:38.316Z,812.12
2018-01-03T02:20:38.317Z,812.09
2018-01-03T02:21:38.330Z,811.99
2018-01-03T02:22:38.339Z,811.88
2018-01-03T02:23:38.342Z,811.90
2018-01-03T02:24:38.348Z,811.86
2018-01-03T02:25:38.354Z,811.95
2018-01-03T02:26:38.363Z,811.88
2018-01-03T02:27:38.368Z,811.77
2018-01-03T02:28:38.380Z,811.86
2018-01-03T02:29:38.382Z,811.81
2018-01-03T02:30:38.396Z,811.78
2018-01-03T02:31:38.402Z,811.86
2018-01-03T02:32:38.404Z,811.91
2018-01-03T02:33:38.411Z,811.94
2018-01-03T02:34:38.417Z,812.01
2018-01-03T02:35:38.425Z,812.01
2018-01-03T02:36:38.439Z,811.95
2018-01-03T02:37:38.439Z,811.88
2018-01-03T02:38:38.445Z,811.89
2018-01-03T02:39:38.453Z,811.92
2018-01-03T02:40:38.465Z,812.02
2018-01-03T02:41:38.467Z,812.02
2018-01-03T02:42:38.474Z,811.96
2018-01-03T02:43:38.484Z,811.98
2018-01-03T02:44:38.493Z,812.02
2018-01-03T02:45:38.506Z,812.01
2018-01-03T02:46:38.509Z,812.03
2018-01-03T02:47:38.513Z,812.07
2018-01-03T02:48:38.519Z,812.04
2018-01-03T02:49:38.526Z,811.94
2018-01-03T02:50:38.538Z,811.92
2018-01-03T02:51:38.546Z,811.94
2018-01-03T02:52:38.547Z,811.96
2018-01-03T02:53:38.558Z,811.75
2018-01-03T02:54:38.562Z,811.87
2018-01-03T02:55:38.575Z,811.95
2018-01-03T02:56:38.581Z,811.90
2018-01-03T02:57:38.590Z,811.91
2018-01-03T02:58:38.594Z,811.91
2018-01-03T02:59:38.598Z,811.78
2018-01-03T03:00:38.612Z,811.75
2018-01-03T03:01:38.625Z,811.81
2018-01-03T03:02:38.625Z,811.83
2018-01-03T03:03:38.633Z,811.67
2018-01-03T03:04:38.640Z,811.66
2018-01-03T03:05:38.642Z,811.63
2018-01-03T03:06:38.655Z,811.54
2018-01-03T03:07:38.661Z,811.33
2018-01-03T03:08:38.664Z,811.37
2018-01-03T03:09:38.678Z,811.41
2018-01-03T03:10:38.678Z,811.40
2018-01-03T03:11:38.692Z,811.47
2018-01-03T03:12:38.699Z,811.54
2018-01-03T03:13:38.706Z,811.53
2018-01-03T03:14:38.707Z,811.46
2018-01-03T03:15:38.714Z,811.32
2018-01-03T03:16:38.727Z,811.32
2018-01-03T03:17:38.734Z,811.45
2018-01-03T03:18:38.743Z,811.51
2018-01-03T03:19:38.743Z,811.48
2018-01-03T03:20:38.753Z,811.47
2018-01-03T03:21:38.765Z,811.44
2018-01-03T03:22:38.772Z,811.41
2018-01-03T03:23:38.778Z,811.42
2018-01-03T03:24:38.791Z,811.48
2018-01-03T03:25:38.791Z,811.44
2018-01-03T03:26:38.794Z,811.43
2018-01-03T03:27:38.806Z,811.34
2018-01-03T03:28:38.817Z,811.35
2018-01-03T03:29:38.821Z,811.28
2018-01-03T03:30:38.830Z,811.15
2018-01-03T03:31:38.832Z,811.19
2018-01-03T03:32:38.839Z,811.14
2018-01-03T03:33:38.851Z,811.24
2018-01-03T03:34:38.860Z,811.22
2018-01-03T03:35:38.867Z,811.24
2018-01-03T03:36:38.875Z,811.15
2018-01-03T03:37:38.876Z,811.09
2018-01-03T03:38:38.888Z,811.23
2018-01-03T03:39:38.892Z,811.27
2018-01-03T03:40:38.899Z,811.25
2018-01-03T03:41:38.908Z,811.19
2018-01-03T03:42:38.919Z,811.27
2018-01-03T03:43:38.926Z,811.28
2018-01-03T03:44:38.933Z,811.30
2018-01-03T03:45:38.943Z,811.18
2018-01-03T03:46:38.950Z,811.18
2018-01-03T03:47:38.955Z,811.09
2018-01-03T03:48:38.968Z,811.05
2018-01-03T03:49:38.966Z,811.14
2018-01-03T03:50:38.975Z,811.21
2018-01-03T03:51:38.986Z,811.27
2018-01-03T03:52:38.986Z,811.31
2018-01-03T03:53:38.996Z,811.18
2018-01-03T03:54:39.002Z,811.25
2018-01-03T03:55:39.008Z,811.26
2018-01-03T03:56:39.018Z,811.21
2018-01-03T03:57:39.029Z,811.10
2018-01-03T03:58:39.035Z,811.13
2018-01-03T03:59:39.043Z,811.19
2018-01-03T04:00:39.045Z,811.16
2018-01-03T04:01:39.057Z,811.16
2018-01-03T04:02:39.065Z,811.13
2018-01-03T04:03:39.073Z,811.04
2018-01-03T04:04:39.073Z,810.99
2018-01-03T04:05:39.085Z,811.00
2018-01-03T04:06:39.092Z,811.02
2018-01-03T04:07:39.096Z,811.14
2018-01-03T04:08:39.102Z,810.91
2018-01-03T04:09:39.109Z,810.96
2018-01-03T04:10:39.121Z,811.06
2018-01-03T04:11:39.123Z,811.07
2018-01-03T04:12:39.133Z,810.92
2018-01-03T04:13:39.139Z,810.94
2018-01-03T04:14:39.149Z,810.91
2018-01-03T04:15:39.159Z,810.76
2018-01-03T04:16:39.160Z,810.61
2018-01-03T04:17:39.168Z,810.61
2018-01-03T04:18:39.179Z,810.69
2018-01-03T04:19:39.180Z,810.57
2018-01-03T04:20:39.189Z,810.62
2018-01-03T04:21:39.202Z,810.69
2018-01-03T04:22:39.207Z,810.70
2018-01-03T04:23:39.220Z,810.71
2018-01-03T04:24:39.225Z,810.70
2018-01-03T04:25:39.226Z,810.68
2018-01-03T04:26:39.232Z,810.84
2018-01-03T04:27:39.247Z,810.83
2018-01-03T04:28:39.252Z,810.67
2018-01-03T04:29:39.259Z,810.61
2018-01-03T04:30:39.267Z,810.56
2018-01-03T04:31:39.271Z,810.50
2018-01-03T04:32:39.281Z,810.52
2018-01-03T04:33:39.289Z,810.45
2018-01-03T04:34:39.290Z,810.35
2018-01-03T04:35:39.302Z,810.19
2018-01-03T04:36:39.311Z,810.16
2018-01-03T04:37:39.327Z,810.08
2018-01-03T04:38:39.324Z,810.18
2018-01-03T04:39:39.333Z,810.30
2018-01-03T04:40:39.335Z,810.12
2018-01-03T04:41:39.342Z,810.13
2018-01-03T04:42:39.354Z,810.19
2018-01-03T04:43:39.358Z,810.17
2018-01-03T04:44:39.371Z,810.08
2018-01-03T04:45:39.373Z,810.03
2018-01-03T04:46:39.384Z,810.05
2018-01-03T04:47:39.387Z,810.12
2018-01-03T04:48:39.395Z,810.04
2018-01-03T04:49:39.403Z,809.86
2018-01-03T04:50:39.414Z,809.91
2018-01-03T04:51:39.422Z,809.94
2018-01-03T04:52:39.430Z,809.98
2018-01-03T04:53:39.433Z,809.86
2018-01-03T04:54:39.456Z,809.82
2018-01-03T04:55:39.452Z,809.82
2018-01-03T04:56:39.455Z,809.89
2018-01-03T04:57:39.463Z,809.94
2018-01-03T04:58:39.474Z,809.92
2018-01-03T04:59:39.482Z,809.88
2018-01-03T05:00:39.485Z,809.91
2018-01-03T05:01:39.493Z,809.91
2018-01-03T05:02:39.501Z,809.89
2018-01-03T05:03:39.513Z,809.77
2018-01-03T05:04:39.515Z,809.74
2018-01-03T05:05:39.525Z,809.73
2018-01-03T05:06:39.532Z,809.74
2018-01-03T05:07:39.543Z,809.62
2018-01-03T05:08:39.548Z,809.51
2018-01-03T05:09:39.554Z,809.44
2018-01-03T05:10:39.567Z,809.47
2018-01-03T05:11:39.567Z,809.53
2018-01-03T05:12:39.574Z,809.50
2018-01-03T05:13:39.590Z,809.54
2018-01-03T05:14:39.590Z,809.65
2018-01-03T05:15:39.648Z,809.62
2018-01-03T05:16:39.606Z,809.60
2018-01-03T05:17:39.614Z,809.59
2018-01-03T05:18:39.626Z,809.55
2018-01-03T05:19:39.629Z,809.54
2018-01-03T05:20:39.646Z,809.50
2018-01-03T05:21:39.644Z,809.46
2018-01-03T05:22:39.650Z,809.64
2018-01-03T05:23:39.663Z,809.62
2018-01-03T05:24:39.666Z,809.61
2018-01-03T05:25:39.673Z,809.69
2018-01-03T05:26:39.686Z,809.64
2018-01-03T05:27:39.742Z,809.53
2018-01-03T05:28:39.696Z,809.52
2018-01-03T05:29:39.702Z,809.41
2018-01-03T05:30:39.710Z,809.33
2018-01-03T05:31:39.722Z,809.20
2018-01-03T05:32:39.729Z,809.14
2018-01-03T05:33:39.735Z,809.17
2018-01-03T05:34:39.743Z,809.14
2018-01-03T05:35:39.745Z,809.17
2018-01-03T05:36:39.755Z,809.22
2018-01-03T05:37:39.766Z,809.30
2018-01-03T05:38:39.765Z,809.27
2018-01-03T05:39:39.774Z,809.00
2018-01-03T05:40:39.780Z,808.94
2018-01-03T05:41:39.794Z,808.91
2018-01-03T05:42:39.794Z,808.78
2018-01-03T05:43:39.806Z,808.76
2018-01-03T05:44:39.810Z,808.76
2018-01-03T05:45:39.825Z,808.79
2018-01-03T05:46:39.824Z,808.88
2018-01-03T05:47:39.833Z,808.89
2018-01-03T05:48:39.842Z,808.95
2018-01-03T05:49:39.847Z,809.01
2018-01-03T05:50:39.853Z,808.98
2018-01-03T05:51:39.868Z,808.98
2018-01-03T05:52:39.868Z,809.05
2018-01-03T05:53:39.876Z,809.06
2018-01-03T05:54:39.884Z,809.33
2018-01-03T05:55:39.892Z,809.32
2018-01-03T05:56:39.899Z,809.09
2018-01-03T05:57:39.907Z,809.25
2018-01-03T05:58:39.919Z,809.32
2018-01-03T05:59:39.922Z,809.16
2018-01-03T06:00:39.936Z,809.17
2018-01-03T06:01:39.948Z,809.11
2018-01-03T06:02:39.946Z,809.01
2018-01-03T06:03:39.955Z,808.89
2018-01-03T06:04:39.965Z,808.93
2018-01-03T06:05:39.970Z,808.97
2018-01-03T06:06:39.983Z,808.90
2018-01-03T06:07:39.990Z,808.89
2018-01-03T06:08:39.990Z,808.62
2018-01-03T06:09:40.005Z,808.51
2018-01-03T06:10:40.014Z,808.56
2018-01-03T06:11:40.014Z,808.53
2018-01-03T06:12:40.030Z,808.60
2018-01-03T06:13:40.030Z,808.68
2018-01-03T06:14:40.038Z,808.69
2018-01-03T06:15:40.045Z,808.66
2018-01-03T06:16:40.052Z,808.68
2018-01-03T06:17:40.065Z,808.66
2018-01-03T06:18:40.069Z,808.62
2018-01-03T06:19:40.082Z,808.55
2018-01-03T06:20:40.083Z,808.63
2018-01-03T06:21:40.098Z,808.53
2018-01-03T06:22:40.099Z,808.49
2018-01-03T06:23:40.108Z,808.46
2018-01-03T06:24:40.116Z,808.51
2018-01-03T06:25:40.210Z,808.54
2018-01-03T06:26:40.223Z,807.94
2018-01-03T06:27:40.147Z,808.12
2018-01-03T06:28:40.153Z,808.23
2018-01-03T06:29:40.160Z,807.96
2018-01-03T06:30:40.161Z,807.94
2018-01-03T06:31:40.171Z,807.83
2018-01-03T06:32:40.179Z,807.87
2018-01-03T06:33:40.193Z,807.98
2018-01-03T06:34:40.202Z,807.80
2018-01-03T06:35:40.207Z,807.63
2018-01-03T06:36:40.210Z,807.51
2018-01-03T06:37:40.221Z,807.34
2018-01-03T06:38:40.231Z,807.33
2018-01-03T06:39:40.234Z,807.43
2018-01-03T06:40:40.247Z,807.53
2018-01-03T06:41:40.255Z,807.79
2018-01-03T06:42:40.264Z,807.74
2018-01-03T06:43:40.273Z,807.32
2018-01-03T06:44:40.348Z,807.24
2018-01-03T06:45:40.283Z,807.30
2018-01-03T06:46:40.291Z,807.43
2018-01-03T06:47:40.300Z,807.56
2018-01-03T06:48:40.312Z,807.56
2018-01-03T06:49:40.323Z,807.67
2018-01-03T06:50:40.322Z,807.75
2018-01-03T06:51:40.331Z,807.76
2018-01-03T06:52:40.339Z,807.75
2018-01-03T06:53:40.353Z,807.72
2018-01-03T06:54:40.362Z,807.73
2018-01-03T06:55:40.372Z,807.77
2018-01-03T06:56:40.374Z,807.86
2018-01-03T06:57:40.387Z,807.79
2018-01-03T06:58:40.389Z,807.94
2018-01-03T06:59:40.401Z,807.87
2018-01-03T07:00:40.404Z,807.75
2018-01-03T07:01:40.519Z,807.66
2018-01-03T07:02:40.426Z,807.66
2018-01-03T07:03:40.433Z,807.63
2018-01-03T07:04:40.443Z,807.63
2018-01-03T07:05:40.449Z,807.72
2018-01-03T07:06:40.556Z,807.53
2018-01-03T07:07:40.464Z,807.46
2018-01-03T07:08:40.472Z,807.41
2018-01-03T07:09:40.482Z,807.42
2018-01-03T07:10:40.494Z,807.38
2018-01-03T07:11:40.494Z,807.23
2018-01-03T07:12:40.501Z,807.04
2018-01-03T07:13:40.511Z,806.93
2018-01-03T07:14:40.519Z,807.11
2018-01-03T07:15:40.531Z,807.21
2018-01-03T07:16:40.534Z,807.23
2018-01-03T07:17:40.543Z,807.26
2018-01-03T07:18:40.555Z,807.18
2018-01-03T07:19:40.560Z,807.12
2018-01-03T07:20:40.573Z,806.94
2018-01-03T07:21:40.583Z,806.64
2018-01-03T07:22:40.590Z,806.97
2018-01-03T07:23:40.599Z,806.98
2018-01-03T07:24:40.599Z,806.76
2018-01-03T07:25:40.608Z,807.03
2018-01-03T07:26:40.614Z,807.21
2018-01-03T07:27:40.631Z,807.26
2018-01-03T07:28:40.633Z,807.26
2018-01-03T07:29:40.646Z,807.23
2018-01-03T07:30:40.655Z,807.07
2018-01-03T07:31:40.657Z,807.31
2018-01-03T07:32:40.665Z,807.34
2018-01-03T07:33:40.679Z,807.34
2018-01-03T07:34:40.684Z,807.42
2018-01-03T07:35:40.692Z,807.43
2018-01-03T07:36:40.698Z,807.18
2018-01-03T07:37:40.713Z,807.60
2018-01-03T07:38:40.715Z,807.80
2018-01-03T07:39:40.729Z,807.56
2018-01-03T07:40:40.730Z,807.68
2018-01-03T07:41:40.746Z,807.52
2018-01-03T07:42:40.752Z,807.37
2018-01-03T07:43:40.759Z,807.20
2018-01-03T07:44:40.766Z,807.20
2018-01-03T07:45:40.769Z,807.16
2018-01-03T07:46:40.779Z,807.28
2018-01-03T07:47:40.784Z,807.49
2018-01-03T07:48:40.793Z,807.54
2018-01-03T07:49:40.812Z,807.57
2018-01-03T07:50:40.813Z,807.56
2018-01-03T07:51:40.818Z,807.47
2018-01-03T07:52:40.829Z,807.26
2018-01-03T07:53:40.833Z,807.04
2018-01-03T07:54:40.844Z,807.04
2018-01-03T07:55:40.853Z,807.00
2018-01-03T07:56:40.855Z,806.78
2018-01-03T07:57:40.864Z,806.55
2018-01-03T07:58:40.872Z,806.66
2018-01-03T07:59:40.880Z,806.91
2018-01-03T08:00:40.892Z,807.05
2018-01-03T08:01:40.901Z,807.12
2018-01-03T08:02:40.908Z,807.03
2018-01-03T08:03:40.916Z,807.11
2018-01-03T08:04:40.919Z,807.01
2018-01-03T08:05:40.932Z,806.91
2018-01-03T08:06:40.942Z,806.81
2018-01-03T08:07:40.950Z,807.06
2018-01-03T08:08:40.951Z,807.03
2018-01-03T08:09:40.966Z,806.98
2018-01-03T08:10:40.974Z,807.03
2018-01-03T08:11:40.979Z,807.14
2018-01-03T08:12:40.991Z,806.45
2018-01-03T08:13:40.995Z,806.77
2018-01-03T08:14:41.001Z,806.77
2018-01-03T08:15:41.018Z,806.91
2018-01-03T08:16:41.024Z,806.91
2018-01-03T08:17:41.032Z,806.69
2018-01-03T08:18:41.039Z,806.95
2018-01-03T08:19:41.049Z,806.31
2018-01-03T08:20:41.056Z,806.07
2018-01-03T08:21:41.060Z,806.18
2018-01-03T08:22:41.071Z,806.66
2018-01-03T08:23:41.075Z,806.83
2018-01-03T08:24:41.085Z,806.83
2018-01-03T08:25:41.098Z,806.82
2018-01-03T08:26:41.107Z,806.81
2018-01-03T08:27:41.109Z,806.71
2018-01-03T08:28:41.119Z,807.02
2018-01-03T08:29:41.125Z,806.90
2018-01-03T08:30:41.132Z,807.35
2018-01-03T08:31:41.141Z,807.40
2018-01-03T08:32:41.157Z,807.02
2018-01-03T08:33:41.158Z,807.12
2018-01-03T08:34:41.170Z,807.02
2018-01-03T08:35:41.179Z,806.84
2018-01-03T08:36:41.181Z,806.62
2018-01-03T08:37:41.196Z,806.39
2018-01-03T08:38:41.205Z,806.48
2018-01-03T08:39:41.205Z,806.48
2018-01-03T08:40:41.250Z,806.73
2018-01-03T08:41:41.224Z,806.83
2018-01-03T08:42:41.245Z,806.87
2018-01-03T08:43:41.244Z,807.15
2018-01-03T08:44:41.253Z,807.26
2018-01-03T08:45:41.260Z,806.99
2018-01-03T08:46:41.269Z,806.55
2018-01-03T08:47:41.278Z,806.35
2018-01-03T08:48:41.280Z,806.29
2018-01-03T08:49:41.289Z,806.44
2018-01-03T08:50:41.295Z,806.17
2018-01-03T08:51:41.309Z,806.07
2018-01-03T08:52:41.321Z,806.28
2018-01-03T08:53:41.322Z,806.39
2018-01-03T08:54:41.335Z,806.67
2018-01-03T08:55:41.338Z,806.78
2018-01-03T08:56:41.347Z,806.90
2018-01-03T08:57:41.362Z,806.78
2018-01-03T08:58:41.364Z,806.67
2018-01-03T08:59:41.372Z,806.88
2018-01-03T09:00:41.380Z,806.87
2018-01-03T09:01:41.391Z,806.74
2018-01-03T09:02:41.402Z,807.01
2018-01-03T09:03:41.412Z,806.72
2018-01-03T09:04:41.420Z,806.72
2018-01-03T09:05:41.428Z,806.58
2018-01-03T09:06:41.437Z,806.25
2018-01-03T09:07:41.445Z,805.90
2018-01-03T09:08:41.448Z,805.97
2018-01-03T09:09:41.466Z,805.82
2018-01-03T09:10:41.471Z,806.05
2018-01-03T09:11:41.479Z,805.85
2018-01-03T09:12:41.483Z,805.90
2018-01-03T09:13:41.496Z,805.95
2018-01-03T09:14:41.496Z,806.15
2018-01-03T09:15:41.513Z,806.06
2018-01-03T09:16:41.517Z,805.83
2018-01-03T09:17:41.520Z,806.14
2018-01-03T09:18:41.527Z,806.20
2018-01-03T09:19:41.543Z,806.37
2018-01-03T09:20:41.550Z,806.29
2018-01-03T09:21:41.565Z,806.40
2018-01-03T09:22:41.570Z,805.76
2018-01-03T09:23:41.574Z,806.01
2018-01-03T09:24:41.577Z,806.08
2018-01-03T09:25:41.586Z,805.85
2018-01-03T09:26:41.598Z,805.78
2018-01-03T09:27:41.600Z,805.64
2018-01-03T09:28:41.613Z,805.90
2018-01-03T09:29:41.622Z,806.14
2018-01-03T09:30:41.629Z,806.29
2018-01-03T09:31:41.636Z,806.43
2018-01-03T09:32:41.642Z,806.20
2018-01-03T09:33:41.653Z,806.09
2018-01-03T09:34:41.656Z,805.98
2018-01-03T09:35:41.672Z,805.90
2018-01-03T09:36:41.682Z,805.77
2018-01-03T09:37:41.685Z,805.56
2018-01-03T09:38:41.695Z,805.49
2018-01-03T09:39:41.693Z,806.01
2018-01-03T09:40:41.709Z,806.34
2018-01-03T09:41:41.716Z,806.09
2018-01-03T09:42:41.726Z,806.23
2018-01-03T09:43:41.734Z,806.05
2018-01-03T09:44:41.743Z,806.27
2018-01-03T09:45:41.744Z,806.51
2018-01-03T09:46:41.758Z,806.27
2018-01-03T09:47:41.764Z,806.15
2018-01-03T09:48:41.770Z,805.75
2018-01-03T09:49:41.777Z,805.99
2018-01-03T09:50:41.795Z,805.90
2018-01-03T09:51:41.795Z,805.51
2018-01-03T09:52:41.810Z,806.04
2018-01-03T09:53:41.822Z,805.96
2018-01-03T09:54:41.840Z,805.61
2018-01-03T09:55:41.831Z,805.21
2018-01-03T09:56:41.839Z,805.18
2018-01-03T09:57:41.848Z,805.42
2018-01-03T09:58:41.852Z,805.37
2018-01-03T09:59:41.867Z,805.43
2018-01-03T10:00:41.869Z,805.39
2018-01-03T10:01:41.892Z,805.52
2018-01-03T10:02:41.886Z,805.56
2018-01-03T10:03:41.894Z,805.67
2018-01-03T10:04:41.907Z,805.88
2018-01-03T10:05:41.912Z,805.83
2018-01-03T10:06:41.922Z,805.80
2018-01-03T10:07:41.933Z,805.70
2018-01-03T10:08:41.936Z,806.04
2018-01-03T10:09:41.957Z,805.91
2018-01-03T10:10:41.955Z,805.81
2018-01-03T10:11:41.959Z,805.55
2018-01-03T10:12:41.976Z,805.96
2018-01-03T10:13:41.981Z,806.00
2018-01-03T10:14:41.984Z,806.01
2018-01-03T10:15:41.995Z,805.90
2018-01-03T10:16:42.006Z,805.20
2018-01-03T10:17:42.011Z,805.36
2018-01-03T10:18:42.017Z,805.88
2018-01-03T10:19:42.023Z,805.88
2018-01-03T10:20:42.040Z,805.74
2018-01-03T10:21:42.047Z,805.17
2018-01-03T10:22:42.048Z,805.34
2018-01-03T10:23:42.052Z,805.55
2018-01-03T10:24:42.062Z,805.79
2018-01-03T10:25:42.070Z,805.30
2018-01-03T10:26:42.079Z,805.59
2018-01-03T10:27:42.097Z,805.75
2018-01-03T10:28:42.109Z,805.33
2018-01-03T10:29:42.100Z,804.91
2018-01-03T10:30:42.108Z,805.87
2018-01-03T10:31:42.113Z,805.96
2018-01-03T10:32:42.125Z,805.55
2018-01-03T10:33:42.138Z,805.48
2018-01-03T10:34:42.141Z,805.89
2018-01-03T10:35:42.148Z,805.70
2018-01-03T10:36:42.156Z,805.41
2018-01-03T10:37:42.158Z,805.53
2018-01-03T10:38:42.165Z,805.81
2018-01-03T10:39:42.181Z,805.65
2018-01-03T10:40:42.189Z,805.66
2018-01-03T10:41:42.194Z,805.37
2018-01-03T10:42:42.208Z,805.97
2018-01-03T10:43:42.202Z,805.40
2018-01-03T10:44:42.218Z,805.84
2018-01-03T10:45:42.217Z,805.34
2018-01-03T10:46:42.226Z,805.30
2018-01-03T10:47:42.237Z,805.70
2018-01-03T10:48:42.246Z,805.61
2018-01-03T10:49:42.248Z,805.01
2018-01-03T10:50:42.260Z,805.14
2018-01-03T10:51:42.264Z,805.16
2018-01-03T10:52:42.276Z,805.54
2018-01-03T10:53:42.281Z,805.73
2018-01-03T10:54:42.291Z,805.84
2018-01-03T10:55:42.296Z,805.71
2018-01-03T10:56:42.307Z,805.02
2018-01-03T10:57:42.311Z,805.18
2018-01-03T10:58:42.319Z,805.55
2018-01-03T10:59:42.328Z,805.05
2018-01-03T11:00:42.334Z,804.94
2018-01-03T11:01:42.337Z,804.81
2018-01-03T11:02:42.351Z,804.43
2018-01-03T11:03:42.352Z,804.15
2018-01-03T11:04:42.359Z,804.34
2018-01-03T11:05:42.372Z,804.83
2018-01-03T11:06:42.376Z,804.62
2018-01-03T11:07:42.392Z,804.80
2018-01-03T11:08:42.389Z,804.90
2018-01-03T11:09:42.404Z,804.93
2018-01-03T11:10:42.409Z,805.04
2018-01-03T11:11:42.413Z,804.66
2018-01-03T11:12:42.425Z,804.86
2018-01-03T11:13:42.428Z,804.42
2018-01-03T11:14:42.440Z,804.59
2018-01-03T11:15:42.449Z,804.75
2018-01-03T11:16:42.460Z,804.79
2018-01-03T11:17:42.460Z,804.74
2018-01-03T11:18:42.472Z,804.83
2018-01-03T11:19:42.478Z,805.00
2018-01-03T11:20:42.486Z,804.97
2018-01-03T11:21:42.496Z,804.76
2018-01-03T11:22:42.491Z,804.44
2018-01-03T11:23:42.503Z,805.06
2018-01-03T11:24:42.510Z,804.33
2018-01-03T11:25:42.529Z,804.99
2018-01-03T11:26:42.525Z,804.91
2018-01-03T11:27:42.537Z,805.09
2018-01-03T11:28:42.544Z,805.11
2018-01-03T11:29:42.552Z,804.36
2018-01-03T11:30:42.556Z,804.76
2018-01-03T11:31:42.564Z,805.01
2018-01-03T11:32:42.572Z,804.33
2018-01-03T11:33:42.582Z,804.14
2018-01-03T11:34:42.590Z,804.44
2018-01-03T11:35:42.597Z,805.21
2018-01-03T11:36:42.600Z,804.91
2018-01-03T11:37:42.612Z,804.41
2018-01-03T11:38:42.612Z,804.36
2018-01-03T11:39:42.627Z,804.28
2018-01-03T11:40:42.630Z,804.04
2018-01-03T11:41:42.634Z,804.27
2018-01-03T11:42:42.644Z,804.67
2018-01-03T11:43:42.646Z,804.28
2018-01-03T11:44:42.658Z,804.68
2018-01-03T11:45:42.666Z,804.28
2018-01-03T11:46:42.665Z,804.82
2018-01-03T11:47:42.674Z,804.53
2018-01-03T11:48:42.682Z,804.69
2018-01-03T11:49:42.692Z,804.71
2018-01-03T11:50:42.704Z,805.10
2018-01-03T11:51:42.718Z,804.13
2018-01-03T11:52:42.729Z,805.30
2018-01-03T11:53:42.719Z,804.82
2018-01-03T11:54:42.729Z,805.04
2018-01-03T11:55:42.736Z,805.12
2018-01-03T11:56:42.739Z,805.09
2018-01-03T11:57:42.753Z,805.07
2018-01-03T11:58:42.758Z,804.86
2018-01-03T11:59:42.782Z,805.28
2018-01-03T12:00:42.772Z,805.03
2018-01-03T12:01:42.778Z,804.19
2018-01-03T12:02:42.791Z,804.82
2018-01-03T12:03:42.788Z,805.08
2018-01-03T12:04:42.799Z,805.13
2018-01-03T12:05:42.806Z,805.45
2018-01-03T12:06:42.807Z,805.30
2018-01-03T12:07:42.821Z,804.96
2018-01-03T12:08:42.822Z,804.96
2018-01-03T12:09:42.833Z,805.19
2018-01-03T12:10:42.835Z,805.20
2018-01-03T12:11:42.845Z,805.07
2018-01-03T12:12:42.854Z,805.30
2018-01-03T12:13:42.854Z,805.11
2018-01-03T12:14:42.867Z,804.49
2018-01-03T12:15:42.869Z,805.22
2018-01-03T12:16:42.887Z,804.88
2018-01-03T12:17:42.878Z,805.11
2018-01-03T12:18:42.888Z,805.04
2018-01-03T12:19:42.895Z,804.90
2018-01-03T12:20:42.902Z,804.15
2018-01-03T12:21:42.911Z,805.02
2018-01-03T12:22:42.916Z,805.35
2018-01-03T12:23:42.921Z,805.07
2018-01-03T12:24:42.928Z,805.04
2018-01-03T12:25:42.935Z,805.06
2018-01-03T12:26:42.940Z,804.54
2018-01-03T12:27:42.947Z,804.87
2018-01-03T12:28:42.948Z,804.39